Time;durP1;ratioP1;P1;durP2;ratioP2;P2;SDS_P1;SDS_P2;PMS_P1;PMS_P2;Temp;Humidity;BMP_temperature;BMP_pressure;BME280_temperature;BME280_humidity;BME280_pressure;Samples;Min_cycle;Max_cycle;Signal;HPM_P1;HPM_P2
2022/03/14 00:00:35;;;;;;;13.1;8;;;;;;;1.06;34.00195;95163.62;;;;
2022/03/14 00:01:36;;;;;;;13.1;8;;;;;;;1.06;34.00195;95163.62;;;;
2022/03/14 00:02:37;;;;;;;13.1;8;;;;;;;1.06;34.00195;95163.62;;;;
2022/03/14 00:03:45;;;;;;;13.1;8;;;;;;;1.06;34.00195;95163.62;;;;
2022/03/14 00:04:48;;;;;;;13.1;8;;;;;;;1.06;34.00195;95163.62;;;;
2022/03/14 00:05:49;;;;;;;13.1;8;;;;;;;1.06;34.00195;95163.62;;;;
2022/03/14 00:06:49;;;;;;;13.1;8;;;;;;;1.06;34.00195;95163.62;;;;
2022/03/14 00:07:50;;;;;;;13.1;8;;;;;;;1.06;34.00195;95163.62;;;;
2022/03/14 00:08:54;;;;;;;13.1;8;;;;;;;1.06;34.00195;95163.62;;;;
2022/03/14 00:09:55;;;;;;;13.1;8;;;;;;;1.06;34.00195;95163.62;;;;
2022/03/14 00:10:56;;;;;;;13.1;8;;;;;;;1.06;34.00195;95163.62;;;;
2022/03/14 00:11:57;;;;;;;14.5;8.050002;;;;;;;0.89;34.2959;95178.47;;;;
2022/03/14 00:12:58;;;;;;;14.5;8.050002;;;;;;;0.89;34.2959;95178.47;;;;
2022/03/14 00:14:01;;;;;;;14.5;8.050002;;;;;;;0.89;34.2959;95178.47;;;;
2022/03/14 00:15:07;;;;;;;14.5;8.050002;;;;;;;0.89;34.2959;95178.47;;;;
2022/03/14 00:16:10;;;;;;;14.5;8.050002;;;;;;;0.89;34.2959;95178.47;;;;
2022/03/14 00:17:11;;;;;;;14.5;8.050002;;;;;;;0.89;34.2959;95178.47;;;;
2022/03/14 00:18:12;;;;;;;14.5;8.050002;;;;;;;0.89;34.2959;95178.47;;;;
2022/03/14 00:19:14;;;;;;;14.5;8.050002;;;;;;;0.89;34.2959;95178.47;;;;
2022/03/14 00:20:14;;;;;;;14.5;8.050002;;;;;;;0.89;34.2959;95178.47;;;;
2022/03/14 00:21:16;;;;;;;14.5;8.050002;;;;;;;0.89;34.2959;95178.47;;;;
2022/03/14 00:22:19;;;;;;;12.65;8.35;;;;;;;0.81;34.55371;95207.26;;;;
2022/03/14 00:23:20;;;;;;;12.65;8.35;;;;;;;0.81;34.55371;95207.26;;;;
2022/03/14 00:24:21;;;;;;;12.65;8.35;;;;;;;0.81;34.55371;95207.26;;;;
2022/03/14 00:25:22;;;;;;;12.65;8.35;;;;;;;0.81;34.55371;95207.26;;;;
2022/03/14 00:26:23;;;;;;;12.65;8.35;;;;;;;0.81;34.55371;95207.26;;;;
2022/03/14 00:27:24;;;;;;;12.65;8.35;;;;;;;0.81;34.55371;95207.26;;;;
2022/03/14 00:28:24;;;;;;;12.65;8.35;;;;;;;0.81;34.55371;95207.26;;;;
2022/03/14 00:29:25;;;;;;;12.65;8.35;;;;;;;0.81;34.55371;95207.26;;;;
2022/03/14 00:30:25;;;;;;;12.65;8.35;;;;;;;0.81;34.55371;95207.26;;;;
2022/03/14 00:31:26;;;;;;;12.65;8.35;;;;;;;0.81;34.55371;95207.26;;;;
2022/03/14 00:32:26;;;;;;;12.65;8.35;;;;;;;0.81;34.55371;95207.26;;;;
2022/03/14 00:33:27;;;;;;;12.5;7.750001;;;;;;;0.67;34.64746;95229.37;;;;
2022/03/14 00:34:27;;;;;;;12.5;7.750001;;;;;;;0.67;34.64746;95229.37;;;;
2022/03/14 00:35:28;;;;;;;12.5;7.750001;;;;;;;0.67;34.64746;95229.37;;;;
2022/03/14 00:36:29;;;;;;;12.5;7.750001;;;;;;;0.67;34.64746;95229.37;;;;
2022/03/14 00:37:29;;;;;;;12.5;7.750001;;;;;;;0.67;34.64746;95229.37;;;;
2022/03/14 00:38:30;;;;;;;12.5;7.750001;;;;;;;0.67;34.64746;95229.37;;;;
2022/03/14 00:39:31;;;;;;;12.5;7.750001;;;;;;;0.67;34.64746;95229.37;;;;
2022/03/14 00:40:32;;;;;;;12.5;7.750001;;;;;;;0.67;34.64746;95229.37;;;;
2022/03/14 00:41:33;;;;;;;12.5;7.750001;;;;;;;0.67;34.64746;95229.37;;;;
2022/03/14 00:42:33;;;;;;;12.5;7.750001;;;;;;;0.67;34.64746;95229.37;;;;
2022/03/14 00:43:34;;;;;;;11.05;7.799999;;;;;;;0.64;34.9834;95244.76;;;;
2022/03/14 00:44:36;;;;;;;11.05;7.799999;;;;;;;0.64;34.9834;95244.76;;;;
2022/03/14 00:45:36;;;;;;;11.05;7.799999;;;;;;;0.64;34.9834;95244.76;;;;
2022/03/14 00:46:37;;;;;;;11.05;7.799999;;;;;;;0.64;34.9834;95244.76;;;;
2022/03/14 00:47:38;;;;;;;11.05;7.799999;;;;;;;0.64;34.9834;95244.76;;;;
2022/03/14 00:48:38;;;;;;;11.05;7.799999;;;;;;;0.64;34.9834;95244.76;;;;
2022/03/14 00:49:39;;;;;;;11.05;7.799999;;;;;;;0.64;34.9834;95244.76;;;;
2022/03/14 00:50:40;;;;;;;11.05;7.799999;;;;;;;0.64;34.9834;95244.76;;;;
2022/03/14 00:51:40;;;;;;;11.05;7.799999;;;;;;;0.64;34.9834;95244.76;;;;
2022/03/14 00:52:41;;;;;;;11.05;7.799999;;;;;;;0.64;34.9834;95244.76;;;;
2022/03/14 00:53:42;;;;;;;11.05;7.799999;;;;;;;0.64;34.9834;95244.76;;;;
2022/03/14 00:54:43;;;;;;;13.05;7.5;;;;;;;0.65;35.03711;95244.69;;;;
2022/03/14 00:55:44;;;;;;;13.05;7.5;;;;;;;0.65;35.03711;95244.69;;;;
2022/03/14 00:56:44;;;;;;;13.05;7.5;;;;;;;0.65;35.03711;95244.69;;;;
2022/03/14 00:57:45;;;;;;;13.05;7.5;;;;;;;0.65;35.03711;95244.69;;;;
2022/03/14 00:58:45;;;;;;;13.05;7.5;;;;;;;0.65;35.03711;95244.69;;;;
2022/03/14 00:59:46;;;;;;;13.05;7.5;;;;;;;0.65;35.03711;95244.69;;;;
2022/03/14 01:00:48;;;;;;;13.05;7.5;;;;;;;0.65;35.03711;95244.69;;;;
2022/03/14 01:01:49;;;;;;;13.05;7.5;;;;;;;0.65;35.03711;95244.69;;;;
2022/03/14 01:02:50;;;;;;;13.05;7.5;;;;;;;0.65;35.03711;95244.69;;;;
2022/03/14 01:03:50;;;;;;;13.05;7.5;;;;;;;0.65;35.03711;95244.69;;;;
2022/03/14 01:04:51;;;;;;;11;7.25;;;;;;;0.6;35.15039;95250.93;;;;
2022/03/14 01:05:52;;;;;;;11;7.25;;;;;;;0.6;35.15039;95250.93;;;;
2022/03/14 01:06:52;;;;;;;11;7.25;;;;;;;0.6;35.15039;95250.93;;;;
2022/03/14 01:07:53;;;;;;;11;7.25;;;;;;;0.6;35.15039;95250.93;;;;
2022/03/14 01:08:54;;;;;;;11;7.25;;;;;;;0.6;35.15039;95250.93;;;;
2022/03/14 01:09:54;;;;;;;11;7.25;;;;;;;0.6;35.15039;95250.93;;;;
2022/03/14 01:10:55;;;;;;;11;7.25;;;;;;;0.6;35.15039;95250.93;;;;
2022/03/14 01:11:55;;;;;;;11;7.25;;;;;;;0.6;35.15039;95250.93;;;;
2022/03/14 01:12:57;;;;;;;11;7.25;;;;;;;0.6;35.15039;95250.93;;;;
2022/03/14 01:13:57;;;;;;;11;7.25;;;;;;;0.6;35.15039;95250.93;;;;
2022/03/14 01:14:58;;;;;;;11;7.25;;;;;;;0.6;35.15039;95250.93;;;;
2022/03/14 01:15:59;;;;;;;12;7.050001;;;;;;;0.67;35.4209;95263.83;;;;
2022/03/14 01:16:59;;;;;;;12;7.050001;;;;;;;0.67;35.4209;95263.83;;;;
2022/03/14 01:18:00;;;;;;;12;7.050001;;;;;;;0.67;35.4209;95263.83;;;;
2022/03/14 01:19:01;;;;;;;12;7.050001;;;;;;;0.67;35.4209;95263.83;;;;
2022/03/14 01:20:01;;;;;;;12;7.050001;;;;;;;0.67;35.4209;95263.83;;;;
2022/03/14 01:21:03;;;;;;;12;7.050001;;;;;;;0.67;35.4209;95263.83;;;;
2022/03/14 01:22:09;;;;;;;12;7.050001;;;;;;;0.67;35.4209;95263.83;;;;
2022/03/14 01:23:10;;;;;;;12;7.050001;;;;;;;0.67;35.4209;95263.83;;;;
2022/03/14 01:24:11;;;;;;;12;7.050001;;;;;;;0.67;35.4209;95263.83;;;;
2022/03/14 01:25:11;;;;;;;12;7.050001;;;;;;;0.67;35.4209;95263.83;;;;
2022/03/14 01:26:12;;;;;;;11.15;7;;;;;;;0.71;35.54004;95277.09;;;;
2022/03/14 01:27:12;;;;;;;11.15;7;;;;;;;0.71;35.54004;95277.09;;;;
2022/03/14 01:28:13;;;;;;;11.15;7;;;;;;;0.71;35.54004;95277.09;;;;
2022/03/14 01:29:16;;;;;;;11.15;7;;;;;;;0.71;35.54004;95277.09;;;;
2022/03/14 01:30:16;;;;;;;11.15;7;;;;;;;0.71;35.54004;95277.09;;;;
2022/03/14 01:31:18;;;;;;;11.15;7;;;;;;;0.71;35.54004;95277.09;;;;
2022/03/14 01:32:19;;;;;;;11.15;7;;;;;;;0.71;35.54004;95277.09;;;;
2022/03/14 01:33:19;;;;;;;11.15;7;;;;;;;0.71;35.54004;95277.09;;;;
2022/03/14 01:34:20;;;;;;;11.15;7;;;;;;;0.71;35.54004;95277.09;;;;
2022/03/14 01:35:20;;;;;;;11.15;7;;;;;;;0.71;35.54004;95277.09;;;;
2022/03/14 01:36:21;;;;;;;11.15;7;;;;;;;0.71;35.54004;95277.09;;;;
2022/03/14 01:37:22;;;;;;;12.95;7.1;;;;;;;0.78;35.56641;95293.15;;;;
2022/03/14 01:38:22;;;;;;;12.95;7.1;;;;;;;0.78;35.56641;95293.15;;;;
2022/03/14 01:39:23;;;;;;;12.95;7.1;;;;;;;0.78;35.56641;95293.15;;;;
2022/03/14 01:40:24;;;;;;;12.95;7.1;;;;;;;0.78;35.56641;95293.15;;;;
2022/03/14 01:41:26;;;;;;;12.95;7.1;;;;;;;0.78;35.56641;95293.15;;;;
2022/03/14 01:42:27;;;;;;;12.95;7.1;;;;;;;0.78;35.56641;95293.15;;;;
2022/03/14 01:43:28;;;;;;;12.95;7.1;;;;;;;0.78;35.56641;95293.15;;;;
2022/03/14 01:44:30;;;;;;;12.95;7.1;;;;;;;0.78;35.56641;95293.15;;;;
2022/03/14 01:45:31;;;;;;;12.95;7.1;;;;;;;0.78;35.56641;95293.15;;;;
2022/03/14 01:46:32;;;;;;;12.95;7.1;;;;;;;0.78;35.56641;95293.15;;;;
2022/03/14 01:47:33;;;;;;;10.75;6.950001;;;;;;;0.86;35.70117;95293.91;;;;
2022/03/14 01:48:34;;;;;;;10.75;6.950001;;;;;;;0.86;35.70117;95293.91;;;;
2022/03/14 01:49:35;;;;;;;10.75;6.950001;;;;;;;0.86;35.70117;95293.91;;;;
2022/03/14 01:50:35;;;;;;;10.75;6.950001;;;;;;;0.86;35.70117;95293.91;;;;
2022/03/14 01:51:36;;;;;;;10.75;6.950001;;;;;;;0.86;35.70117;95293.91;;;;
2022/03/14 01:52:36;;;;;;;10.75;6.950001;;;;;;;0.86;35.70117;95293.91;;;;
2022/03/14 01:53:37;;;;;;;10.75;6.950001;;;;;;;0.86;35.70117;95293.91;;;;
2022/03/14 01:54:39;;;;;;;10.75;6.950001;;;;;;;0.86;35.70117;95293.91;;;;
2022/03/14 01:55:40;;;;;;;10.75;6.950001;;;;;;;0.86;35.70117;95293.91;;;;
2022/03/14 01:56:41;;;;;;;10.75;6.950001;;;;;;;0.86;35.70117;95293.91;;;;
2022/03/14 01:57:42;;;;;;;10.75;6.950001;;;;;;;0.86;35.70117;95293.91;;;;
2022/03/14 01:58:43;;;;;;;9.9;6.299999;;;;;;;1.15;35.87402;95326.47;;;;
2022/03/14 01:59:45;;;;;;;9.9;6.299999;;;;;;;1.15;35.87402;95326.47;;;;
2022/03/14 02:00:46;;;;;;;9.9;6.299999;;;;;;;1.15;35.87402;95326.47;;;;
2022/03/14 02:01:47;;;;;;;9.9;6.299999;;;;;;;1.15;35.87402;95326.47;;;;
2022/03/14 02:02:48;;;;;;;9.9;6.299999;;;;;;;1.15;35.87402;95326.47;;;;
2022/03/14 02:03:50;;;;;;;9.9;6.299999;;;;;;;1.15;35.87402;95326.47;;;;
2022/03/14 02:04:50;;;;;;;9.9;6.299999;;;;;;;1.15;35.87402;95326.47;;;;
2022/03/14 02:05:51;;;;;;;9.9;6.299999;;;;;;;1.15;35.87402;95326.47;;;;
2022/03/14 02:06:52;;;;;;;9.9;6.299999;;;;;;;1.15;35.87402;95326.47;;;;
2022/03/14 02:07:53;;;;;;;9.9;6.299999;;;;;;;1.15;35.87402;95326.47;;;;
2022/03/14 02:08:55;;;;;;;9.799999;6.550001;;;;;;;1.55;36.04492;95354.05;;;;
2022/03/14 02:09:56;;;;;;;9.799999;6.550001;;;;;;;1.55;36.04492;95354.05;;;;
2022/03/14 02:10:56;;;;;;;9.799999;6.550001;;;;;;;1.55;36.04492;95354.05;;;;
2022/03/14 02:11:57;;;;;;;9.799999;6.550001;;;;;;;1.55;36.04492;95354.05;;;;
2022/03/14 02:13:06;;;;;;;9.799999;6.550001;;;;;;;1.55;36.04492;95354.05;;;;
2022/03/14 02:14:08;;;;;;;9.799999;6.550001;;;;;;;1.55;36.04492;95354.05;;;;
2022/03/14 02:15:08;;;;;;;9.799999;6.550001;;;;;;;1.55;36.04492;95354.05;;;;
2022/03/14 02:16:09;;;;;;;9.799999;6.550001;;;;;;;1.55;36.04492;95354.05;;;;
2022/03/14 02:17:10;;;;;;;9.799999;6.550001;;;;;;;1.55;36.04492;95354.05;;;;
2022/03/14 02:18:12;;;;;;;9.799999;6.550001;;;;;;;1.55;36.04492;95354.05;;;;
2022/03/14 02:19:13;;;;;;;9.799999;6.550001;;;;;;;1.55;36.04492;95354.05;;;;
2022/03/14 02:20:14;;;;;;;9.95;6.2;;;;;;;2.12;35.96484;95389.89;;;;
2022/03/14 02:21:14;;;;;;;9.95;6.2;;;;;;;2.12;35.96484;95389.89;;;;
2022/03/14 02:22:15;;;;;;;9.95;6.2;;;;;;;2.12;35.96484;95389.89;;;;
2022/03/14 02:23:15;;;;;;;9.95;6.2;;;;;;;2.12;35.96484;95389.89;;;;
2022/03/14 02:24:16;;;;;;;9.95;6.2;;;;;;;2.12;35.96484;95389.89;;;;
2022/03/14 02:25:16;;;;;;;9.95;6.2;;;;;;;2.12;35.96484;95389.89;;;;
2022/03/14 02:26:18;;;;;;;9.95;6.2;;;;;;;2.12;35.96484;95389.89;;;;
2022/03/14 02:27:19;;;;;;;9.95;6.2;;;;;;;2.12;35.96484;95389.89;;;;
2022/03/14 02:28:21;;;;;;;9.95;6.2;;;;;;;2.12;35.96484;95389.89;;;;
2022/03/14 02:29:23;;;;;;;9.95;6.2;;;;;;;2.12;35.96484;95389.89;;;;
2022/03/14 02:30:24;;;;;;;9.95;6.2;;;;;;;2.12;35.96484;95389.89;;;;
2022/03/14 02:31:25;;;;;;;9.95;6.2;;;;;;;2.12;35.96484;95389.89;;;;
2022/03/14 02:32:25;;;;;;;9.95;6.2;;;;;;;2.12;35.96484;95389.89;;;;
2022/03/14 02:33:26;;;;;;;9.95;6.2;;;;;;;2.12;35.96484;95389.89;;;;
2022/03/14 02:34:26;;;;;;;9.95;6.2;;;;;;;2.12;35.96484;95389.89;;;;
2022/03/14 02:35:27;;;;;;;9.95;6.2;;;;;;;2.12;35.96484;95389.89;;;;
2022/03/14 02:36:28;;;;;;;9.95;6.2;;;;;;;2.12;35.96484;95389.89;;;;
2022/03/14 02:37:28;;;;;;;9.95;6.2;;;;;;;2.12;35.96484;95389.89;;;;
2022/03/14 02:38:29;;;;;;;9.95;6.2;;;;;;;2.12;35.96484;95389.89;;;;
2022/03/14 02:39:31;;;;;;;9.95;6.2;;;;;;;2.12;35.96484;95389.89;;;;
2022/03/14 02:40:33;;;;;;;9.95;6.2;;;;;;;2.12;35.96484;95389.89;;;;
2022/03/14 02:41:33;;;;;;;10.25;6.599999;;;;;;;2.87;35.93359;95413.09;;;;
2022/03/14 02:42:34;;;;;;;10.25;6.599999;;;;;;;2.87;35.93359;95413.09;;;;
2022/03/14 02:43:35;;;;;;;10.25;6.599999;;;;;;;2.87;35.93359;95413.09;;;;
2022/03/14 02:44:41;;;;;;;10.25;6.599999;;;;;;;2.87;35.93359;95413.09;;;;
2022/03/14 02:45:42;;;;;;;10.25;6.599999;;;;;;;2.87;35.93359;95413.09;;;;
2022/03/14 02:46:43;;;;;;;10.25;6.599999;;;;;;;2.87;35.93359;95413.09;;;;
2022/03/14 02:47:44;;;;;;;10.25;6.599999;;;;;;;2.87;35.93359;95413.09;;;;
2022/03/14 02:48:44;;;;;;;10.25;6.599999;;;;;;;2.87;35.93359;95413.09;;;;
2022/03/14 02:49:45;;;;;;;10.25;6.599999;;;;;;;2.87;35.93359;95413.09;;;;
2022/03/14 02:50:48;;;;;;;10.25;6.599999;;;;;;;2.87;35.93359;95413.09;;;;
2022/03/14 02:51:51;;;;;;;10.25;6.599999;;;;;;;2.87;35.93359;95413.09;;;;
2022/03/14 02:52:52;;;;;;;9.1;6.199999;;;;;;;3.03;36.68066;95435.14;;;;
2022/03/14 02:53:56;;;;;;;9.1;6.199999;;;;;;;3.03;36.68066;95435.14;;;;
2022/03/14 02:54:57;;;;;;;9.1;6.199999;;;;;;;3.03;36.68066;95435.14;;;;
2022/03/14 02:55:57;;;;;;;9.1;6.199999;;;;;;;3.03;36.68066;95435.14;;;;
2022/03/14 02:56:58;;;;;;;9.1;6.199999;;;;;;;3.03;36.68066;95435.14;;;;
2022/03/14 02:57:59;;;;;;;9.1;6.199999;;;;;;;3.03;36.68066;95435.14;;;;
2022/03/14 02:58:59;;;;;;;9.1;6.199999;;;;;;;3.03;36.68066;95435.14;;;;
2022/03/14 03:00:00;;;;;;;9.1;6.199999;;;;;;;3.03;36.68066;95435.14;;;;
2022/03/14 03:01:00;;;;;;;9.1;6.199999;;;;;;;3.03;36.68066;95435.14;;;;
2022/03/14 03:02:01;;;;;;;9.1;6.199999;;;;;;;3.03;36.68066;95435.14;;;;
2022/03/14 03:03:03;;;;;;;9.65;5.400001;;;;;;;3.35;37.33496;95456.13;;;;
2022/03/14 03:04:04;;;;;;;9.65;5.400001;;;;;;;3.35;37.33496;95456.13;;;;
2022/03/14 03:05:05;;;;;;;9.65;5.400001;;;;;;;3.35;37.33496;95456.13;;;;
2022/03/14 03:06:12;;;;;;;9.65;5.400001;;;;;;;3.35;37.33496;95456.13;;;;
2022/03/14 03:07:13;;;;;;;9.65;5.400001;;;;;;;3.35;37.33496;95456.13;;;;
2022/03/14 03:08:14;;;;;;;9.65;5.400001;;;;;;;3.35;37.33496;95456.13;;;;
2022/03/14 03:09:14;;;;;;;9.65;5.400001;;;;;;;3.35;37.33496;95456.13;;;;
2022/03/14 03:10:17;;;;;;;9.65;5.400001;;;;;;;3.35;37.33496;95456.13;;;;
2022/03/14 03:11:18;;;;;;;9.65;5.400001;;;;;;;3.35;37.33496;95456.13;;;;
2022/03/14 03:12:21;;;;;;;9.65;5.400001;;;;;;;3.35;37.33496;95456.13;;;;
2022/03/14 03:13:21;;;;;;;9.65;5.400001;;;;;;;3.35;37.33496;95456.13;;;;
2022/03/14 03:14:22;;;;;;;9.050001;5.15;;;;;;;4.2;37.67578;95484.15;;;;
2022/03/14 03:15:24;;;;;;;9.050001;5.15;;;;;;;4.2;37.67578;95484.15;;;;
2022/03/14 03:16:25;;;;;;;9.050001;5.15;;;;;;;4.2;37.67578;95484.15;;;;
2022/03/14 03:17:26;;;;;;;9.050001;5.15;;;;;;;4.2;37.67578;95484.15;;;;
2022/03/14 03:18:26;;;;;;;9.050001;5.15;;;;;;;4.2;37.67578;95484.15;;;;
2022/03/14 03:19:27;;;;;;;9.050001;5.15;;;;;;;4.2;37.67578;95484.15;;;;
2022/03/14 03:20:27;;;;;;;9.050001;5.15;;;;;;;4.2;37.67578;95484.15;;;;
2022/03/14 03:21:28;;;;;;;9.050001;5.15;;;;;;;4.2;37.67578;95484.15;;;;
2022/03/14 03:22:28;;;;;;;9.050001;5.15;;;;;;;4.2;37.67578;95484.15;;;;
2022/03/14 03:23:29;;;;;;;9.050001;5.15;;;;;;;4.2;37.67578;95484.15;;;;
2022/03/14 03:24:30;;;;;;;10.85;6.9;;;;;;;5.42;38.85156;95508.03;;;;
2022/03/14 03:25:31;;;;;;;10.85;6.9;;;;;;;5.42;38.85156;95508.03;;;;
2022/03/14 03:26:31;;;;;;;10.85;6.9;;;;;;;5.42;38.85156;95508.03;;;;
2022/03/14 03:27:32;;;;;;;10.85;6.9;;;;;;;5.42;38.85156;95508.03;;;;
2022/03/14 03:28:35;;;;;;;10.85;6.9;;;;;;;5.42;38.85156;95508.03;;;;
2022/03/14 03:29:36;;;;;;;10.85;6.9;;;;;;;5.42;38.85156;95508.03;;;;
2022/03/14 03:30:37;;;;;;;10.85;6.9;;;;;;;5.42;38.85156;95508.03;;;;
2022/03/14 03:31:37;;;;;;;10.85;6.9;;;;;;;5.42;38.85156;95508.03;;;;
2022/03/14 03:32:38;;;;;;;10.85;6.9;;;;;;;5.42;38.85156;95508.03;;;;
2022/03/14 03:33:38;;;;;;;10.85;6.9;;;;;;;5.42;38.85156;95508.03;;;;
2022/03/14 03:34:40;;;;;;;10.85;6.9;;;;;;;5.42;38.85156;95508.03;;;;
2022/03/14 03:35:40;;;;;;;10.85;6.9;;;;;;;5.42;38.85156;95508.03;;;;
2022/03/14 03:36:41;;;;;;;10.85;6.9;;;;;;;5.42;38.85156;95508.03;;;;
2022/03/14 03:37:41;;;;;;;10.85;6.9;;;;;;;5.42;38.85156;95508.03;;;;
2022/03/14 03:38:42;;;;;;;10.85;6.9;;;;;;;5.42;38.85156;95508.03;;;;
2022/03/14 03:39:43;;;;;;;10.85;6.9;;;;;;;5.42;38.85156;95508.03;;;;
2022/03/14 03:40:43;;;;;;;10.85;6.9;;;;;;;5.42;38.85156;95508.03;;;;
2022/03/14 03:41:44;;;;;;;10.85;6.9;;;;;;;5.42;38.85156;95508.03;;;;
2022/03/14 03:42:44;;;;;;;10.85;6.9;;;;;;;5.42;38.85156;95508.03;;;;
2022/03/14 03:43:45;;;;;;;10.85;6.9;;;;;;;5.42;38.85156;95508.03;;;;
2022/03/14 03:44:46;;;;;;;10.85;6.9;;;;;;;5.42;38.85156;95508.03;;;;
2022/03/14 03:45:46;;;;;;;10.85;6.9;;;;;;;5.42;38.85156;95508.03;;;;
2022/03/14 03:46:47;;;;;;;15.1;9.000002;;;;;;;7.15;40.86426;95566.91;;;;
2022/03/14 03:47:48;;;;;;;15.1;9.000002;;;;;;;7.15;40.86426;95566.91;;;;
2022/03/14 03:48:49;;;;;;;15.1;9.000002;;;;;;;7.15;40.86426;95566.91;;;;
2022/03/14 03:49:49;;;;;;;15.1;9.000002;;;;;;;7.15;40.86426;95566.91;;;;
2022/03/14 03:50:50;;;;;;;15.1;9.000002;;;;;;;7.15;40.86426;95566.91;;;;
2022/03/14 03:51:50;;;;;;;15.1;9.000002;;;;;;;7.15;40.86426;95566.91;;;;
2022/03/14 03:52:51;;;;;;;15.1;9.000002;;;;;;;7.15;40.86426;95566.91;;;;
2022/03/14 03:53:51;;;;;;;15.1;9.000002;;;;;;;7.15;40.86426;95566.91;;;;
2022/03/14 03:54:52;;;;;;;15.1;9.000002;;;;;;;7.15;40.86426;95566.91;;;;
2022/03/14 03:55:52;;;;;;;15.1;9.000002;;;;;;;7.15;40.86426;95566.91;;;;
2022/03/14 03:56:53;;;;;;;14.5;10.5;;;;;;;7.54;41.58691;95591.14;;;;
2022/03/14 03:57:53;;;;;;;14.5;10.5;;;;;;;7.54;41.58691;95591.14;;;;
2022/03/14 03:58:55;;;;;;;14.5;10.5;;;;;;;7.54;41.58691;95591.14;;;;
2022/03/14 03:59:55;;;;;;;14.5;10.5;;;;;;;7.54;41.58691;95591.14;;;;
2022/03/14 04:00:56;;;;;;;14.5;10.5;;;;;;;7.54;41.58691;95591.14;;;;
2022/03/14 04:01:56;;;;;;;14.5;10.5;;;;;;;7.54;41.58691;95591.14;;;;
2022/03/14 04:02:57;;;;;;;14.5;10.5;;;;;;;7.54;41.58691;95591.14;;;;
2022/03/14 04:04:01;;;;;;;14.5;10.5;;;;;;;7.54;41.58691;95591.14;;;;
2022/03/14 04:05:01;;;;;;;14.5;10.5;;;;;;;7.54;41.58691;95591.14;;;;
2022/03/14 04:06:02;;;;;;;14.5;10.5;;;;;;;7.54;41.58691;95591.14;;;;
2022/03/14 04:07:06;;;;;;;14.5;10.5;;;;;;;7.54;41.58691;95591.14;;;;
2022/03/14 04:08:10;;;;;;;14.5;10.5;;;;;;;7.54;41.58691;95591.14;;;;
2022/03/14 04:09:10;;;;;;;14.5;10.5;;;;;;;7.54;41.58691;95591.14;;;;
2022/03/14 04:10:13;;;;;;;14.5;10.5;;;;;;;7.54;41.58691;95591.14;;;;
2022/03/14 04:11:13;;;;;;;14.5;10.5;;;;;;;7.54;41.58691;95591.14;;;;
2022/03/14 04:12:14;;;;;;;14.5;10.5;;;;;;;7.54;41.58691;95591.14;;;;
2022/03/14 04:13:14;;;;;;;14.5;10.5;;;;;;;7.54;41.58691;95591.14;;;;
2022/03/14 04:14:15;;;;;;;14.5;10.5;;;;;;;7.54;41.58691;95591.14;;;;
2022/03/14 04:15:20;;;;;;;14.5;10.5;;;;;;;7.54;41.58691;95591.14;;;;
2022/03/14 04:16:22;;;;;;;14.5;10.5;;;;;;;7.54;41.58691;95591.14;;;;
2022/03/14 04:17:24;;;;;;;14.5;10.5;;;;;;;7.54;41.58691;95591.14;;;;
2022/03/14 04:18:25;;;;;;;20.1;13.75;;;;;;;7.71;43.94336;95650.53;;;;
2022/03/14 04:19:26;;;;;;;20.1;13.75;;;;;;;7.71;43.94336;95650.53;;;;
2022/03/14 04:20:26;;;;;;;20.1;13.75;;;;;;;7.71;43.94336;95650.53;;;;
2022/03/14 04:21:27;;;;;;;20.1;13.75;;;;;;;7.71;43.94336;95650.53;;;;
2022/03/14 04:22:29;;;;;;;20.1;13.75;;;;;;;7.71;43.94336;95650.53;;;;
2022/03/14 04:23:31;;;;;;;20.1;13.75;;;;;;;7.71;43.94336;95650.53;;;;
2022/03/14 04:24:36;;;;;;;20.1;13.75;;;;;;;7.71;43.94336;95650.53;;;;
2022/03/14 04:25:36;;;;;;;20.1;13.75;;;;;;;7.71;43.94336;95650.53;;;;
2022/03/14 04:26:38;;;;;;;20.1;13.75;;;;;;;7.71;43.94336;95650.53;;;;
2022/03/14 04:27:39;;;;;;;20.1;13.75;;;;;;;7.71;43.94336;95650.53;;;;
2022/03/14 04:28:41;;;;;;;20.1;13.75;;;;;;;7.71;43.94336;95650.53;;;;
2022/03/14 04:29:42;;;;;;;17.35;13.35;;;;;;;7.58;44.87305;95668.42;;;;
2022/03/14 04:30:42;;;;;;;17.35;13.35;;;;;;;7.58;44.87305;95668.42;;;;
2022/03/14 04:31:43;;;;;;;17.35;13.35;;;;;;;7.58;44.87305;95668.42;;;;
2022/03/14 04:32:44;;;;;;;17.35;13.35;;;;;;;7.58;44.87305;95668.42;;;;
2022/03/14 04:33:44;;;;;;;17.35;13.35;;;;;;;7.58;44.87305;95668.42;;;;
2022/03/14 04:34:45;;;;;;;17.35;13.35;;;;;;;7.58;44.87305;95668.42;;;;
2022/03/14 04:35:45;;;;;;;17.35;13.35;;;;;;;7.58;44.87305;95668.42;;;;
2022/03/14 04:36:50;;;;;;;17.35;13.35;;;;;;;7.58;44.87305;95668.42;;;;
2022/03/14 04:37:50;;;;;;;17.35;13.35;;;;;;;7.58;44.87305;95668.42;;;;
2022/03/14 04:38:51;;;;;;;17.35;13.35;;;;;;;7.58;44.87305;95668.42;;;;
2022/03/14 04:39:52;;;;;;;20.1;13.75;;;;;;;7.29;45.36816;95698.38;;;;
2022/03/14 04:40:53;;;;;;;20.1;13.75;;;;;;;7.29;45.36816;95698.38;;;;
2022/03/14 04:41:55;;;;;;;20.1;13.75;;;;;;;7.29;45.36816;95698.38;;;;
2022/03/14 04:42:55;;;;;;;20.1;13.75;;;;;;;7.29;45.36816;95698.38;;;;
2022/03/14 04:43:56;;;;;;;20.1;13.75;;;;;;;7.29;45.36816;95698.38;;;;
2022/03/14 04:44:56;;;;;;;20.1;13.75;;;;;;;7.29;45.36816;95698.38;;;;
2022/03/14 04:45:57;;;;;;;20.1;13.75;;;;;;;7.29;45.36816;95698.38;;;;
2022/03/14 04:46:57;;;;;;;20.1;13.75;;;;;;;7.29;45.36816;95698.38;;;;
2022/03/14 04:47:59;;;;;;;20.1;13.75;;;;;;;7.29;45.36816;95698.38;;;;
2022/03/14 04:48:59;;;;;;;20.1;13.75;;;;;;;7.29;45.36816;95698.38;;;;
2022/03/14 04:50:00;;;;;;;20.1;13.75;;;;;;;7.29;45.36816;95698.38;;;;
2022/03/14 04:51:01;;;;;;;17.05;12.55;;;;;;;7.16;46.2959;95727.5;;;;
2022/03/14 04:52:01;;;;;;;17.05;12.55;;;;;;;7.16;46.2959;95727.5;;;;
2022/03/14 04:53:02;;;;;;;17.05;12.55;;;;;;;7.16;46.2959;95727.5;;;;
2022/03/14 04:54:03;;;;;;;17.05;12.55;;;;;;;7.16;46.2959;95727.5;;;;
2022/03/14 04:55:03;;;;;;;17.05;12.55;;;;;;;7.16;46.2959;95727.5;;;;
2022/03/14 04:56:05;;;;;;;17.05;12.55;;;;;;;7.16;46.2959;95727.5;;;;
2022/03/14 04:57:05;;;;;;;17.05;12.55;;;;;;;7.16;46.2959;95727.5;;;;
2022/03/14 04:58:06;;;;;;;17.05;12.55;;;;;;;7.16;46.2959;95727.5;;;;
2022/03/14 04:59:06;;;;;;;17.05;12.55;;;;;;;7.16;46.2959;95727.5;;;;
2022/03/14 05:00:08;;;;;;;17.05;12.55;;;;;;;7.16;46.2959;95727.5;;;;
2022/03/14 05:01:09;;;;;;;17.05;12.55;;;;;;;7.16;46.2959;95727.5;;;;
2022/03/14 05:02:09;;;;;;;17.05;12.55;;;;;;;7.16;46.2959;95727.5;;;;
2022/03/14 05:03:10;;;;;;;17.05;12.55;;;;;;;7.16;46.2959;95727.5;;;;
2022/03/14 05:04:11;;;;;;;17.05;12.55;;;;;;;7.16;46.2959;95727.5;;;;
2022/03/14 05:05:11;;;;;;;17.05;12.55;;;;;;;7.16;46.2959;95727.5;;;;
2022/03/14 05:06:12;;;;;;;17.05;12.55;;;;;;;7.16;46.2959;95727.5;;;;
2022/03/14 05:07:12;;;;;;;17.05;12.55;;;;;;;7.16;46.2959;95727.5;;;;
2022/03/14 05:08:13;;;;;;;17.05;12.55;;;;;;;7.16;46.2959;95727.5;;;;
2022/03/14 05:09:14;;;;;;;17.05;12.55;;;;;;;7.16;46.2959;95727.5;;;;
2022/03/14 05:10:14;;;;;;;17.05;12.55;;;;;;;7.16;46.2959;95727.5;;;;
2022/03/14 05:11:15;;;;;;;17.05;12.55;;;;;;;7.16;46.2959;95727.5;;;;
2022/03/14 05:12:16;;;;;;;15;10.9;;;;;;;6.99;47.48535;95771.84;;;;
2022/03/14 05:13:17;;;;;;;15;10.9;;;;;;;6.99;47.48535;95771.84;;;;
2022/03/14 05:14:17;;;;;;;15;10.9;;;;;;;6.99;47.48535;95771.84;;;;
2022/03/14 05:15:18;;;;;;;15;10.9;;;;;;;6.99;47.48535;95771.84;;;;
2022/03/14 05:16:19;;;;;;;15;10.9;;;;;;;6.99;47.48535;95771.84;;;;
2022/03/14 05:17:20;;;;;;;15;10.9;;;;;;;6.99;47.48535;95771.84;;;;
2022/03/14 05:18:20;;;;;;;15;10.9;;;;;;;6.99;47.48535;95771.84;;;;
2022/03/14 05:19:21;;;;;;;15;10.9;;;;;;;6.99;47.48535;95771.84;;;;
2022/03/14 05:20:22;;;;;;;15;10.9;;;;;;;6.99;47.48535;95771.84;;;;
2022/03/14 05:21:23;;;;;;;15;10.9;;;;;;;6.99;47.48535;95771.84;;;;
2022/03/14 05:22:24;;;;;;;15;10.9;;;;;;;6.99;47.48535;95771.84;;;;
2022/03/14 05:23:24;;;;;;;11.85;8.799998;;;;;;;7.11;48.58203;95799.67;;;;
2022/03/14 05:24:25;;;;;;;11.85;8.799998;;;;;;;7.11;48.58203;95799.67;;;;
2022/03/14 05:25:27;;;;;;;11.85;8.799998;;;;;;;7.11;48.58203;95799.67;;;;
2022/03/14 05:26:27;;;;;;;11.85;8.799998;;;;;;;7.11;48.58203;95799.67;;;;
2022/03/14 05:27:28;;;;;;;11.85;8.799998;;;;;;;7.11;48.58203;95799.67;;;;
2022/03/14 05:28:29;;;;;;;11.85;8.799998;;;;;;;7.11;48.58203;95799.67;;;;
2022/03/14 05:29:29;;;;;;;11.85;8.799998;;;;;;;7.11;48.58203;95799.67;;;;
2022/03/14 05:30:30;;;;;;;11.85;8.799998;;;;;;;7.11;48.58203;95799.67;;;;
2022/03/14 05:31:30;;;;;;;11.85;8.799998;;;;;;;7.11;48.58203;95799.67;;;;
2022/03/14 05:32:31;;;;;;;11.85;8.799998;;;;;;;7.11;48.58203;95799.67;;;;
2022/03/14 05:33:31;;;;;;;10.1;7.550001;;;;;;;7.26;49.0791;95821.41;;;;
2022/03/14 05:34:32;;;;;;;10.1;7.550001;;;;;;;7.26;49.0791;95821.41;;;;
2022/03/14 05:35:33;;;;;;;10.1;7.550001;;;;;;;7.26;49.0791;95821.41;;;;
2022/03/14 05:36:33;;;;;;;10.1;7.550001;;;;;;;7.26;49.0791;95821.41;;;;
2022/03/14 05:37:34;;;;;;;10.1;7.550001;;;;;;;7.26;49.0791;95821.41;;;;
2022/03/14 05:38:34;;;;;;;10.1;7.550001;;;;;;;7.26;49.0791;95821.41;;;;
2022/03/14 05:39:35;;;;;;;10.1;7.550001;;;;;;;7.26;49.0791;95821.41;;;;
2022/03/14 05:40:35;;;;;;;10.1;7.550001;;;;;;;7.26;49.0791;95821.41;;;;
2022/03/14 05:41:36;;;;;;;10.1;7.550001;;;;;;;7.26;49.0791;95821.41;;;;
2022/03/14 05:42:36;;;;;;;10.1;7.550001;;;;;;;7.26;49.0791;95821.41;;;;